Date,TemperatureHighF,TemperatureAvgF,TemperatureLowF,DewpointHighF,DewpointAvgF,DewpointLowF,HumidityHigh,HumidityAvg,HumidityLow,PressureMaxIn,PressureMinIn,WindSpeedMaxMPH,WindSpeedAvgMPH,GustSpeedMaxMPH,PrecipitationSumIn
2013-1-1,34.4,33.3,30.8,31.7,30.1,27.7,90,88,85,30.19,30.08,7,2,7,0.32
2013-1-2,34.4,28.5,23.7,27.7,21.8,18.9,88,76,62,30.30,30.16,10,2,10,0.01
2013-1-3,39.3,28.0,20.0,24.1,19.7,15.7,85,72,44,30.43,30.27,12,2,12,0.00
2013-1-4,37.3,30.7,26.0,25.1,22.4,19.0,78,71,60,30.47,30.40,14,4,14,0.00
2013-1-5,45.0,34.0,23.7,28.9,24.2,18.8,82,68,51,30.46,30.25,12,3,12,0.00
2013-1-6,41.9,36.3,26.0,32.5,27.1,18.4,73,69,63,30.42,30.11,21,7,21,0.00
2013-1-7,45.3,32.0,22.0,26.7,22.3,17.3,84,68,47,30.52,30.31,12,1,12,0.00
2013-1-8,53.5,40.6,30.5,35.1,29.1,22.1,76,64,48,30.41,30.29,15,3,15,0.00
2013-1-9,54.1,47.5,43.0,46.4,41.3,35.0,89,79,70,30.54,30.29,10,3,10,0.00
2013-1-10,53.6,47.3,43.8,47.6,40.3,32.4,87,76,64,30.54,30.12,12,4,12,0.03
2013-1-11,67.2,58.7,52.8,54.8,52.1,46.8,89,79,64,30.12,29.92,27,8,27,0.36
2013-1-12,64.8,61.6,57.0,61.3,58.3,53.6,90,89,82,30.07,29.88,20,4,20,0.33
2013-1-13,65.0,56.0,36.1,59.2,51.9,32.3,90,86,75,30.17,29.82,23,7,23,1.61
2013-1-14,36.1,29.9,25.6,32.3,24.4,20.5,86,80,75,30.48,30.17,17,6,17,0.00
2013-1-15,32.0,29.3,25.9,28.3,24.5,21.7,88,82,76,30.39,30.07,20,6,20,0.15
2013-1-16,32.9,32.0,31.2,29.7,28.9,27.9,89,88,87,30.17,30.02,5,0,5,0.13
2013-1-17,38.2,32.5,30.0,31.0,27.3,23.8,88,81,69,30.44,30.15,17,2,17,0.01
2013-1-18,42.0,31.5,21.1,25.3,20.7,15.4,82,65,48,30.60,30.37,12,4,12,0.00
2013-1-19,54.4,43.5,33.4,30.1,26.4,22.8,67,52,34,30.38,30.07,25,11,25,0.00
2013-1-20,45.7,38.1,26.8,30.5,19.6,8.4,73,49,26,30.26,30.07,20,5,20,0.00
2013-1-21,30.4,23.9,14.0,16.7,9.2,1.3,69,54,31,30.33,30.17,22,6,22,0.00
2013-1-22,19.7,14.1,9.9,1.9,-1.7,-4.8,61,49,36,30.49,30.32,13,4,13,0.00
2013-1-23,33.6,22.4,10.9,16.8,8.5,0.7,68,55,42,30.46,30.16,13,2,13,0.00
2013-1-24,27.6,21.9,16.4,17.2,4.7,-2.1,66,48,32,30.62,30.19,22,6,22,0.00
2013-1-25,27.0,23.5,20.5,22.8,15.6,4.0,87,73,48,30.47,30.13,12,4,12,0.00
2013-1-26,36.5,28.5,23.8,23.6,20.6,17.2,87,73,52,30.48,30.26,12,3,12,0.03
2013-1-27,45.8,34.6,22.8,38.3,25.4,17.2,88,70,48,30.47,30.26,14,4,14,0.18
2013-1-28,54.7,49.7,41.6,50.0,44.2,37.1,88,82,70,30.27,30.13,18,8,18,0.20
2013-1-29,67.7,59.9,51.9,57.2,52.8,46.8,83,78,68,30.14,29.68,24,10,24,0.00
2013-1-30,67.9,54.4,32.9,58.7,48.7,25.4,90,81,70,29.68,29.36,32,12,32,0.82
2013-1-31,32.8,29.2,20.6,26.9,20.8,16.4,87,71,59,30.10,29.67,23,10,23,0.00
2013-2-1,20.4,13.3,6.0,16.6,3.9,-2.3,85,66,56,30.52,30.10,20,6,20,0.00
2013-2-2,32.4,25.5,15.7,28.0,20.0,8.5,90,80,71,30.44,30.09,13,4,13,0.07
2013-2-3,29.2,27.2,22.5,23.7,21.1,16.3,81,77,72,30.22,30.01,16,4,16,0.00
2013-2-4,46.5,31.9,17.2,38.8,24.3,12.6,87,74,54,30.21,29.91,22,5,22,0.11
2013-2-5,50.6,43.3,38.8,38.6,35.9,31.0,89,76,55,30.07,29.91,16,6,16,0.00
2013-2-6,46.8,37.5,28.9,33.4,29.4,24.9,87,73,56,30.28,30.07,8,2,8,0.00
2013-2-7,63.5,47.7,36.3,39.6,32.8,28.5,74,58,39,30.22,29.90,14,4,14,0.00
2013-2-8,49.3,38.6,32.8,44.3,32.6,26.4,89,79,65,30.36,29.86,18,7,18,0.12
2013-2-9,46.5,35.5,26.1,26.8,22.0,19.2,79,59,38,30.47,30.25,10,3,10,0.00
2013-2-10,58.3,45.7,35.6,46.1,31.3,19.2,87,59,34,30.25,29.88,23,8,23,0.16
2013-2-11,55.1,49.0,39.5,50.7,36.4,25.1,88,63,43,30.13,29.87,24,10,24,0.01
2013-2-12,48.6,39.6,30.7,28.4,25.8,23.0,75,59,43,30.20,29.93,9,2,9,0.00
2013-2-13,39.8,35.6,31.2,31.6,28.4,26.0,87,75,60,30.00,29.78,12,3,12,0.04
2013-2-14,54.7,41.0,31.0,37.2,31.8,27.3,87,72,47,30.03,29.93,22,6,22,0.01
2013-2-15,42.2,36.7,27.1,32.7,28.4,19.6,82,72,59,30.20,30.03,17,3,17,0.01
2013-2-16,32.6,25.7,19.7,22.0,15.3,8.2,86,66,42,30.21,30.09,15,4,15,0.01
2013-2-17,35.2,25.5,17.4,12.4,10.8,7.5,76,55,32,30.33,30.18,12,3,12,0.00
2013-2-18,60.1,43.0,25.7,37.7,24.5,12.2,61,49,38,30.28,29.85,29,9,29,0.01
2013-2-19,48.4,36.6,24.6,38.3,26.1,15.3,86,66,45,30.20,29.78,26,12,26,0.19
2013-2-20,31.3,24.9,18.1,15.6,12.8,9.4,69,60,49,30.35,30.20,15,5,15,0.00
2013-2-21,37.6,28.0,18.1,26.2,17.0,11.2,82,64,49,30.39,30.03,21,4,21,0.15
2013-2-22,60.0,44.2,31.1,46.1,37.6,26.2,90,78,58,30.09,29.95,26,4,26,0.31
2013-2-23,48.6,39.3,32.9,37.1,28.9,22.6,83,67,45,30.04,29.94,12,3,12,0.00
2013-2-24,45.7,34.6,24.6,26.6,23.2,19.2,80,64,44,30.19,29.99,10,2,10,0.00
2013-2-25,50.7,38.0,27.5,26.3,22.7,19.3,73,56,37,30.18,29.88,16,5,16,0.00
2013-2-26,54.0,45.2,39.3,49.9,37.3,23.0,87,74,50,29.87,29.41,26,7,26,0.29
2013-2-27,39.3,36.0,32.6,34.5,31.5,27.9,87,84,77,29.84,29.62,23,11,23,0.04
2013-2-28,34.2,32.6,31.2,31.1,28.3,26.0,89,84,81,30.03,29.82,20,7,20,0.02
2013-3-1,36.0,33.7,31.8,31.4,30.2,28.4,90,87,83,30.06,29.99,9,3,9,0.05
2013-3-2,31.8,28.0,26.0,28.4,22.5,19.9,87,79,73,30.16,30.04,14,6,14,0.00
2013-3-3,34.1,27.8,22.4,23.2,19.7,16.6,85,72,51,30.16,30.12,12,3,12,0.02
2013-3-4,46.9,33.7,19.7,24.7,20.5,15.4,84,61,38,30.23,30.02,12,3,12,0.00
2013-3-5,46.6,39.7,28.9,43.8,33.3,24.7,90,79,52,30.02,29.59,27,6,27,0.71
2013-3-6,30.8,29.4,27.7,26.5,25.2,24.1,88,84,81,30.34,29.81,20,8,20,0.00
2013-3-7,34.3,31.9,29.8,27.8,25.7,23.9,85,78,67,30.44,30.32,7,2,7,0.01
2013-3-8,47.8,37.5,29.0,30.4,26.3,22.6,79,64,50,30.51,30.39,12,3,12,0.00
2013-3-9,66.2,48.1,32.9,35.2,29.7,24.2,74,52,27,30.39,30.10,12,4,12,0.00
2013-3-10,70.3,59.9,51.8,35.6,33.0,31.0,46,37,25,30.10,29.87,21,7,21,0.00
2013-3-11,61.9,51.7,38.4,51.7,41.6,32.8,90,71,35,29.93,29.67,21,7,21,0.82
2013-3-12,47.7,38.7,33.9,32.8,28.9,26.1,80,68,52,30.11,29.93,20,6,20,0.00
2013-3-13,36.9,31.2,25.9,29.1,20.9,14.4,83,66,50,30.41,30.10,18,8,18,0.00
2013-3-14,44.6,32.1,21.5,27.2,19.1,15.7,79,61,34,30.45,30.28,14,4,14,0.00
2013-3-15,59.0,45.4,32.6,41.9,33.7,26.2,78,64,50,30.28,29.83,14,4,14,0.00
2013-3-16,70.1,59.7,46.1,51.2,46.0,39.3,77,61,48,29.98,29.71,25,10,25,0.00
2013-3-17,46.1,36.5,34.0,39.3,32.6,30.3,89,86,77,30.12,29.96,15,6,15,0.75
2013-3-18,56.6,44.9,35.4,52.2,41.1,32.2,90,87,72,29.97,29.70,20,8,20,1.45
2013-3-19,47.0,39.3,33.4,34.0,22.9,11.2,86,56,24,30.19,29.91,25,8,25,0.00
2013-3-20,45.7,34.2,23.3,24.1,16.6,9.0,61,49,36,30.19,30.00,22,8,22,0.00
2013-3-21,32.3,24.0,18.5,15.9,11.4,9.5,78,59,42,30.12,30.02,13,3,13,0.00
2013-3-22,46.7,31.4,17.3,19.8,14.9,10.0,75,52,32,30.17,30.06,12,2,12,0.00
2013-3-23,54.7,43.6,36.5,29.4,23.2,16.8,62,45,34,30.09,29.86,14,3,14,0.00
2013-3-24,43.0,38.1,34.1,36.9,30.4,22.8,90,76,46,29.86,29.41,16,4,16,1.30
2013-3-25,37.1,31.8,29.6,33.6,27.8,25.4,88,85,77,30.03,29.51,26,10,26,0.07
2013-3-26,38.7,33.5,31.2,31.1,27.8,24.6,88,80,63,30.32,30.03,12,6,12,0.02
2013-3-27,41.4,35.4,27.6,26.4,23.7,21.3,78,63,47,30.40,30.31,14,3,14,0.00
2013-3-28,50.2,38.0,26.6,27.7,24.0,20.6,80,58,39,30.43,30.34,10,2,10,0.00
2013-3-29,54.9,42.7,31.4,38.8,29.9,22.9,81,62,38,30.37,30.25,12,3,12,0.00
2013-3-30,62.1,47.2,33.5,42.4,36.1,30.3,90,68,37,30.28,29.98,14,3,14,0.00
2013-3-31,58.4,51.0,47.6,47.1,43.9,39.0,90,77,58,29.98,29.83,17,3,17,0.22
2013-4-1,49.4,44.8,37.5,44.5,32.4,20.7,87,63,41,30.16,29.87,20,6,20,0.00
2013-4-2,48.4,37.9,26.7,22.3,17.7,12.9,67,45,26,30.32,30.16,12,3,12,0.00
2013-4-3,52.1,39.9,29.8,21.2,16.4,14.2,55,39,27,30.44,30.30,20,4,20,0.00
2013-4-4,51.2,43.8,35.2,32.9,23.2,14.9,59,44,37,30.33,30.04,12,3,12,0.00
2013-4-5,65.1,50.3,35.9,35.0,30.7,26.6,74,50,29,30.15,30.02,17,3,17,0.00
2013-4-6,71.3,56.6,42.4,39.0,32.1,25.5,52,40,28,30.20,29.97,16,5,16,0.00
2013-4-7,72.0,63.0,56.5,48.6,42.9,35.1,55,48,39,30.03,29.96,24,8,24,0.00
2013-4-8,74.0,64.4,56.1,54.5,48.6,41.5,70,57,47,30.02,29.92,25,6,25,0.00
2013-4-9,80.7,69.5,60.0,58.5,54.8,49.7,72,60,44,30.09,29.96,22,6,22,0.00
2013-4-10,84.3,72.8,62.3,62.2,57.4,53.2,77,60,43,30.01,29.79,26,7,26,0.00
2013-4-11,73.9,68.1,59.0,60.7,56.7,54.1,89,68,51,29.81,29.58,18,6,18,0.40
2013-4-12,52.2,49.2,42.4,38.9,36.6,33.7,71,62,55,29.99,29.84,20,6,20,0.36
2013-4-13,61.4,47.6,35.2,38.7,34.0,29.8,81,61,38,30.10,29.99,17,5,17,0.00
2013-4-14,74.6,58.5,42.7,48.8,40.5,33.6,72,53,31,30.08,29.89,16,3,16,0.00
2013-4-15,72.4,62.2,55.9,55.7,51.7,47.8,77,69,55,30.03,29.93,15,5,15,0.00
2013-4-16,81.5,69.2,60.4,65.2,58.9,53.1,87,70,56,30.21,29.98,25,7,25,0.36
2013-4-17,73.2,65.1,61.0,64.1,60.0,57.7,90,84,69,30.20,29.99,15,5,15,0.92
2013-4-18,82.9,72.2,63.2,62.3,57.2,52.6,83,62,39,29.99,29.65,28,11,28,0.00
2013-4-19,73.3,50.0,38.9,60.6,40.5,30.4,88,71,53,30.08,29.47,28,10,28,0.59
2013-4-20,55.4,44.3,34.4,33.3,29.6,26.5,82,59,35,30.40,30.08,17,5,17,0.00
2013-4-21,62.5,48.7,36.4,33.8,29.4,25.6,65,49,31,30.51,30.35,14,5,14,0.00
2013-4-22,73.8,57.5,42.3,45.7,36.4,26.5,56,46,31,30.37,30.15,13,3,13,0.00
2013-4-23,69.5,56.8,49.1,52.8,43.0,39.0,68,60,52,30.16,30.08,15,3,15,0.00
2013-4-24,62.0,51.1,38.6,54.1,43.9,32.6,90,77,62,30.29,29.83,7,3,23,0.92
2013-4-25,59.0,47.2,33.6,38.3,34.3,29.6,87,63,42,30.42,30.29,3,1,18,0.00
2013-4-26,63.9,56.2,41.7,38.4,34.7,28.3,61,45,31,30.48,30.34,23,2,23,0.00
2013-4-27,58.4,55.2,51.4,52.2,45.5,36.3,90,71,49,30.38,30.07,14,3,14,0.18
2013-4-28,67.7,58.6,53.6,59.0,53.6,49.4,90,84,70,30.07,29.86,25,6,25,0.49
2013-4-29,66.0,57.1,52.7,54.4,51.4,48.6,90,82,64,30.05,29.94,8,2,8,0.00
2013-4-30,82.6,65.2,50.6,57.9,52.6,47.6,90,67,36,30.07,29.99,12,2,12,0.01
2013-5-1,84.8,70.8,57.1,60.4,55.8,52.0,83,61,41,30.18,30.06,14,2,14,0.00
2013-5-2,79.8,67.8,57.9,56.4,52.7,49.1,73,59,43,30.21,30.08,12,3,12,0.00
2013-5-3,79.3,68.3,58.7,58.6,52.5,40.2,76,59,38,30.09,29.93,16,5,16,0.00
2013-5-4,73.1,60.9,53.3,51.9,45.5,38.9,90,59,38,30.01,29.92,17,5,17,0.43
2013-5-5,53.7,50.9,47.4,50.8,47.7,44.3,90,89,88,29.99,29.87,16,5,16,1.42
2013-5-6,67.0,55.9,51.2,55.3,51.0,47.3,90,84,63,29.94,29.83,18,5,18,1.14
2013-5-7,70.8,60.8,53.4,57.3,53.7,50.4,90,79,57,29.99,29.90,14,2,14,0.14
2013-5-8,74.4,62.4,55.4,59.3,55.8,52.5,90,80,54,30.04,29.93,24,2,24,0.04
2013-5-9,79.8,67.5,56.0,60.5,56.2,52.3,88,69,42,30.07,29.97,14,3,14,0.00
2013-5-10,70.5,64.5,62.2,60.9,58.5,56.1,90,81,61,29.99,29.86,21,6,21,0.66
2013-5-11,62.7,57.5,53.3,59.7,52.5,48.1,90,83,65,30.00,29.86,13,5,13,0.22
2013-5-12,58.6,50.1,40.0,49.4,34.8,28.5,87,58,36,30.18,30.00,17,4,17,0.00
2013-5-13,64.0,52.0,38.9,37.2,33.5,30.6,75,52,32,30.24,30.15,15,4,15,0.00
2013-5-14,81.5,63.1,45.0,59.0,47.3,35.5,72,58,43,30.20,29.90,20,6,20,0.00
2013-5-15,85.0,74.8,66.8,61.0,56.5,48.9,69,54,37,30.00,29.88,24,10,24,0.00
2013-5-16,73.0,66.4,62.7,64.1,57.2,48.1,90,74,50,30.01,29.91,14,4,14,0.23
2013-5-17,78.7,69.0,61.5,65.1,61.4,58.5,90,78,56,30.07,30.00,12,2,12,0.00
2013-5-18,80.6,70.3,64.7,67.0,64.0,61.2,90,81,63,30.05,29.95,12,2,12,0.15
2013-5-19,86.3,73.1,64.7,69.8,65.7,61.7,90,79,54,30.02,29.91,9,2,9,0.00
2013-5-20,86.0,74.9,64.6,70.7,66.0,60.3,88,75,57,30.04,29.92,16,4,16,0.00
2013-5-21,85.7,72.4,64.7,68.3,64.7,60.2,90,78,49,29.97,29.83,26,5,26,0.47
2013-5-22,76.4,68.3,62.4,65.6,61.7,59.0,90,80,61,29.89,29.78,18,5,18,0.11
2013-5-23,71.7,65.3,61.2,61.3,59.3,55.0,90,82,58,29.95,29.84,18,5,18,0.03
2013-5-24,66.8,56.4,48.5,48.7,43.6,41.8,86,64,43,30.33,30.08,8,2,21,0.00
2013-5-25,66.4,57.4,43.5,48.6,43.5,39.6,87,62,40,30.39,30.22,1,0,8,0.00
2013-5-26,73.7,63.6,52.9,53.0,49.8,45.9,82,62,47,30.31,30.18,2,0,11,0.01
2013-5-27,84.3,72.0,59.0,59.9,54.5,49.2,71,56,34,30.18,30.00,7,2,18,0.00
2013-5-28,85.5,76.1,68.1,63.2,59.8,57.2,75,58,45,30.08,29.97,8,3,20,0.00
2013-5-29,87.4,79.9,66.7,66.7,64.4,58.1,74,60,49,30.12,30.03,21,4,21,0.00
2013-5-30,89.2,77.6,67.2,69.1,63.8,59.9,78,63,48,30.16,30.02,17,5,17,0.00
2013-5-31,84.0,74.6,67.4,70.4,64.7,61.5,90,72,55,30.08,29.97,26,6,26,0.46
2013-6-1,84.0,74.7,69.0,70.1,65.7,62.3,88,74,61,30.00,29.81,32,8,32,0.15
2013-6-2,78.0,70.4,65.2,64.6,62.3,57.8,88,76,58,29.94,29.86,16,4,16,0.00
2013-6-3,74.7,65.9,59.7,58.5,55.9,52.7,90,71,50,30.05,29.91,12,4,12,0.00
2013-6-4,81.8,67.7,55.7,57.9,54.4,50.5,83,64,43,30.12,30.03,12,3,12,0.00
2013-6-5,84.3,71.6,60.5,66.5,58.5,48.9,84,64,47,30.05,29.86,12,2,12,0.00
2013-6-6,77.2,70.2,65.9,68.3,64.9,62.6,90,83,70,29.88,29.75,13,4,13,0.04
2013-6-7,78.7,67.8,62.0,63.3,60.2,58.0,90,78,53,29.87,29.76,12,4,12,0.00
2013-6-8,83.5,71.3,61.6,64.8,60.1,56.3,85,69,50,30.04,29.86,12,1,12,0.00
2013-6-9,81.3,69.2,61.9,69.0,62.5,57.0,90,80,58,30.07,29.93,12,3,12,0.22
2013-6-10,75.7,68.9,64.4,66.6,63.6,61.4,90,84,68,29.93,29.83,17,5,17,0.82
2013-6-11,84.4,73.0,62.6,67.1,63.9,59.6,90,75,54,30.01,29.91,12,4,12,0.01
2013-6-12,91.5,81.8,72.5,75.0,70.1,65.2,84,69,51,29.96,29.79,21,7,21,0.00
2013-6-13,81.8,75.7,66.1,72.0,66.3,56.4,90,73,57,29.92,29.66,26,9,26,0.73
2013-6-14,82.0,69.8,56.1,61.9,56.8,51.3,85,65,46,30.05,29.90,12,3,12,0.00
2013-6-15,86.3,74.2,60.6,61.9,59.0,55.7,84,61,40,30.12,29.98,12,2,12,0.00
2013-6-16,82.0,73.3,66.1,69.0,64.2,59.8,90,74,64,30.05,29.96,17,3,17,0.76
2013-6-17,87.5,73.5,66.0,72.0,66.3,56.8,90,79,48,29.99,29.87,16,2,16,0.13
2013-6-18,86.3,71.6,63.6,67.9,63.8,56.1,90,78,52,29.98,29.84,28,2,28,0.46
2013-6-19,82.7,71.9,62.0,64.5,60.7,58.2,90,70,46,30.10,29.95,13,4,13,0.01
2013-6-20,90.1,76.1,62.5,64.9,60.5,56.6,83,60,38,30.19,30.10,13,2,13,0.00
2013-6-21,88.9,76.8,65.9,68.6,64.1,59.7,90,66,46,30.22,30.11,37,2,37,1.03
2013-6-22,91.0,77.5,66.3,70.7,66.6,63.3,90,71,46,30.20,30.06,9,2,9,0.00
2013-6-23,89.4,78.4,66.7,69.3,65.6,62.3,87,66,44,30.16,30.05,12,3,12,0.00
2013-6-25,89.7,80.0,68.0,74.4,70.4,65.0,90,74,55,30.09,29.93,24,4,13,0.01
2013-6-26,86.1,75.3,67.2,73.0,68.4,63.3,90,80,60,29.97,29.77,20,5,20,2.33
2013-6-27,87.1,74.9,67.0,75.5,68.8,64.0,90,82,61,29.85,29.75,13,4,13,0.27
2013-6-28,86.0,77.7,70.5,70.0,64.9,58.4,87,67,42,29.76,29.60,20,6,20,0.00
2013-6-29,81.2,72.0,64.0,65.2,62.2,59.6,90,72,55,29.70,29.59,18,4,18,1.34
2013-6-30,82.4,71.1,62.9,65.2,62.3,59.9,90,75,51,29.80,29.66,12,2,12,0.02
2013-7-1,81.5,70.3,62.5,68.0,63.7,58.5,90,80,58,29.94,29.78,24,2,24,1.29
2013-7-2,81.7,71.1,61.7,70.0,64.3,58.7,90,80,62,30.04,29.90,8,2,8,0.17
2013-7-3,78.7,72.7,67.2,69.7,66.8,64.2,90,82,72,30.13,30.02,12,2,12,0.00
2013-7-4,71.2,68.3,65.0,67.2,64.4,62.0,90,88,79,30.15,30.08,12,2,12,1.62
2013-7-5,74.3,69.6,65.6,71.1,66.6,62.6,90,90,88,30.15,30.09,8,1,8,1.11
2013-7-6,74.8,69.7,67.6,68.6,66.1,63.4,90,88,77,30.15,30.08,12,3,12,0.65
2013-7-7,84.5,73.5,66.2,68.3,65.4,63.2,90,77,55,30.13,30.05,10,2,10,0.03
2013-7-8,88.3,77.4,67.3,71.9,67.7,63.8,90,73,51,30.16,30.05,12,2,12,0.00
2013-7-9,89.2,81.0,73.6,73.8,70.6,67.8,88,72,53,30.12,30.00,12,3,12,0.02
2013-7-10,89.7,77.3,70.2,76.5,71.3,66.0,90,82,62,30.02,29.84,20,4,20,1.18
2013-7-11,84.5,74.7,68.6,71.1,67.2,61.6,90,78,60,29.98,29.92,16,4,16,0.00
2013-7-12,80.8,71.3,62.0,61.7,57.7,55.1,79,64,42,30.07,29.98,18,6,18,0.00
2013-7-13,82.9,72.4,62.8,68.5,62.7,57.6,84,72,51,30.10,30.01,12,4,12,0.04
2013-7-14,94.0,80.1,69.2,75.2,69.8,64.8,87,72,50,30.20,30.08,12,3,12,0.00
2013-7-15,94.2,82.5,71.4,72.4,69.3,65.8,83,66,46,30.29,30.20,10,2,10,0.00
2013-7-16,95.0,83.2,72.4,73.3,70.1,67.2,85,66,47,30.32,30.24,7,1,7,0.00
2013-7-17,94.9,82.8,74.1,74.2,71.1,68.4,87,69,47,30.29,30.17,10,2,10,0.00
2013-7-18,91.4,80.5,74.3,76.2,71.8,67.0,88,76,55,30.20,30.04,9,1,9,0.09
2013-7-19,90.5,80.4,72.3,75.8,71.8,67.4,89,76,57,30.07,29.92,13,3,13,0.00
2013-7-20,90.1,81.0,73.6,74.6,71.5,69.8,88,74,55,29.96,29.85,16,4,16,0.00
2013-7-21,88.0,78.3,71.8,73.0,70.4,67.9,90,78,56,29.96,29.87,8,2,8,0.60
2013-7-22,77.6,73.4,71.3,71.7,69.7,67.9,90,88,81,29.93,29.78,10,2,10,0.89
2013-7-23,87.0,77.5,67.5,73.8,70.5,62.8,90,80,63,29.86,29.75,34,4,35,1.33
2013-7-24,80.3,70.6,62.5,66.7,61.9,57.8,90,75,53,29.96,29.79,14,4,14,6.58
2013-7-25,79.8,70.1,60.4,61.1,58.2,55.6,85,67,50,30.08,29.96,12,4,12,0.00
2013-7-26,82.1,71.2,57.3,63.5,59.2,53.1,88,67,51,30.09,29.99,10,2,10,0.00
2013-7-27,76.0,70.1,65.8,65.8,63.3,59.8,89,79,69,29.99,29.86,14,2,14,0.02
2013-7-28,75.3,65.9,55.0,59.6,52.6,47.7,85,64,43,30.09,29.91,12,2,12,0.00
2013-7-29,80.3,68.1,54.6,60.5,56.1,50.8,88,67,49,30.19,30.09,14,2,14,0.00
2013-7-30,82.8,70.7,61.2,65.1,61.1,57.2,88,73,50,30.23,30.13,7,1,7,0.03
2013-7-31,73.0,68.5,63.5,67.5,64.4,60.5,90,87,80,30.14,29.96,8,2,8,0.20
2013-8-1,82.3,73.1,67.0,68.5,64.3,59.3,90,76,51,30.00,29.94,14,3,14,0.01
2013-8-2,83.2,72.3,61.3,63.9,61.0,57.3,88,69,49,30.05,29.98,10,2,10,0.00
2013-8-3,84.2,75.7,69.4,72.0,66.6,62.5,86,74,63,30.02,29.94,13,3,13,0.00
2013-8-4,80.2,70.9,61.8,67.6,59.4,55.1,90,69,46,30.11,30.01,13,4,13,0.00
2013-8-5,84.3,72.1,59.5,59.2,56.3,52.8,81,59,40,30.12,29.96,10,2,10,0.00
2013-8-6,84.9,75.7,69.0,71.3,64.6,58.2,83,69,59,29.99,29.92,9,2,9,0.00
2013-8-7,85.7,77.0,72.9,75.8,71.7,68.7,90,84,71,29.96,29.87,12,2,12,0.35
2013-8-8,83.8,76.2,71.8,74.0,71.1,68.7,90,85,70,29.98,29.89,15,3,15,1.17
2013-8-9,83.7,75.2,71.0,74.0,70.5,67.9,90,86,70,30.03,29.93,20,5,20,0.43
2013-8-10,81.1,75.2,71.3,73.9,70.5,68.2,90,85,72,30.10,30.02,8,1,8,0.04
2013-8-11,86.5,77.4,70.8,73.3,70.1,67.7,90,79,59,30.10,30.02,15,2,15,0.02
2013-8-12,84.1,73.7,68.1,73.5,68.6,65.1,90,84,69,30.08,29.90,20,2,20,1.01
2013-8-13,78.0,71.7,64.0,70.8,65.6,56.1,90,81,65,30.02,29.87,13,4,13,0.05
2013-8-14,73.8,64.1,53.6,56.2,51.3,48.8,85,64,46,30.15,30.02,13,5,13,0.00
2013-8-15,78.3,65.4,53.7,56.5,52.1,48.3,83,64,44,30.16,30.06,12,3,12,0.00
2013-8-16,81.5,69.5,59.4,62.8,57.5,53.1,80,67,52,30.13,30.07,12,3,12,0.00
2013-8-17,84.3,72.1,64.2,64.2,59.7,56.1,77,66,47,30.17,30.09,10,3,10,0.00
2013-8-18,82.8,71.4,63.8,68.3,63.8,59.7,88,77,60,30.17,30.09,8,1,8,0.12
2013-8-19,83.8,72.9,67.1,70.8,66.7,64.1,90,81,61,30.14,30.05,8,1,8,0.37
2013-8-20,88.2,75.9,67.0,70.8,67.0,63.3,89,75,55,30.16,30.07,12,2,12,0.00
2013-8-21,86.3,74.8,69.2,72.5,67.4,62.8,90,79,51,30.17,30.06,20,3,20,0.01
2013-8-22,87.5,77.3,69.4,73.4,69.1,65.4,90,77,52,30.13,30.02,12,2,12,0.00
2013-8-23,85.8,76.6,69.7,70.2,67.2,63.8,90,74,52,30.11,30.01,12,2,12,0.00
2013-8-24,89.7,76.4,64.8,66.5,61.4,54.0,87,63,32,30.24,30.11,12,2,12,0.00
2013-8-25,87.7,77.7,63.1,67.4,63.3,58.0,84,62,45,30.33,30.22,10,2,10,0.00
2013-8-26,87.4,76.5,67.8,70.5,66.8,62.1,85,73,54,30.27,30.10,12,3,12,0.00
2013-8-27,87.0,77.8,70.3,74.4,70.6,66.9,90,79,64,30.12,29.98,13,4,13,0.00
2013-8-28,90.6,79.7,72.0,72.7,70.7,68.9,90,76,53,30.02,29.91,14,5,14,0.05
2013-8-29,89.1,78.7,71.7,73.0,69.5,67.0,90,74,53,30.01,29.93,12,2,12,0.00
2013-8-30,90.7,78.8,68.6,71.6,68.7,65.5,90,73,49,29.99,29.85,10,2,10,0.00
2013-8-31,92.4,75.7,68.4,78.6,69.8,64.7,90,82,57,29.96,29.74,32,4,32,3.02
2013-9-1,84.2,74.3,67.7,71.2,67.7,64.2,90,80,62,29.87,29.79,12,3,12,0.03
2013-9-2,86.1,75.5,70.1,73.1,69.3,67.0,90,81,64,29.90,29.81,14,3,14,0.00
2013-9-3,78.8,70.4,63.2,68.4,60.5,55.1,88,72,53,30.06,29.86,13,4,13,0.00
2013-9-4,64.3,63.9,63.5,55.1,54.9,54.6,73,72,72,30.07,30.06,2,1,3,0.00
2013-9-5,81.4,75.0,69.3,65.2,63.9,62.4,79,69,58,30.17,30.13,4,0,4,0.00
2013-9-6,84.3,71.6,62.2,62.8,58.8,53.1,84,66,40,30.21,30.10,8,2,8,0.00
2013-9-7,85.8,74.2,61.0,68.2,62.1,53.4,83,67,52,30.11,29.97,12,2,12,0.00
2013-9-8,89.8,77.8,68.0,69.9,66.8,64.6,90,70,47,30.00,29.93,8,1,8,0.01
2013-9-9,91.4,78.9,69.6,71.7,68.4,64.8,90,72,49,30.05,29.98,10,2,10,0.00
2013-9-10,91.5,80.5,72.2,73.8,70.6,67.8,87,73,53,30.16,30.04,14,4,14,0.00
2013-9-11,90.5,78.8,71.6,73.3,70.4,68.0,90,76,53,30.17,30.05,15,3,15,0.00
2013-9-12,81.7,74.4,67.5,72.2,66.2,61.7,88,76,62,30.06,29.88,15,4,15,0.24
2013-9-13,68.8,62.7,53.3,64.0,51.3,44.0,88,68,48,30.08,29.91,18,6,18,0.00
2013-9-14,73.2,59.1,48.3,49.0,45.8,43.7,85,64,36,30.17,30.07,14,3,14,0.00
2013-9-15,78.1,64.5,50.9,61.0,54.3,45.9,84,70,54,30.16,30.07,15,3,15,0.00
2013-9-16,71.3,66.2,62.0,61.4,59.1,55.7,88,78,67,30.25,30.08,12,2,12,0.03
2013-9-17,80.6,65.6,54.1,57.4,54.4,50.2,87,69,41,30.29,30.15,14,3,14,0.00
2013-9-18,71.6,67.5,63.1,64.4,61.6,56.8,86,81,76,30.17,30.09,14,3,14,0.00
2013-9-19,81.6,71.4,64.6,70.7,65.6,61.6,90,82,68,30.16,30.01,13,3,13,0.00
2013-9-20,84.8,75.1,66.5,68.5,65.8,62.8,89,74,56,30.02,29.81,16,5,16,0.00
2013-9-21,72.2,65.5,57.9,66.3,58.2,49.1,90,78,53,29.87,29.69,15,4,15,1.16
2013-9-22,70.2,59.2,50.0,51.6,48.9,45.9,86,70,49,30.01,29.87,13,3,13,0.00
2013-9-23,73.8,60.9,49.8,51.0,48.3,45.6,86,65,43,30.10,30.00,12,3,12,0.00
2013-9-24,81.0,64.9,51.5,61.7,54.4,46.7,84,70,47,30.07,29.90,8,2,8,0.00
2013-9-25,78.7,68.9,62.9,63.1,59.4,55.1,83,73,53,29.91,29.83,12,2,12,0.00
2013-9-26,80.6,66.1,54.1,60.1,55.5,50.6,90,71,44,30.07,29.90,8,1,8,0.00
2013-9-27,81.5,66.6,54.6,60.8,54.8,50.4,90,69,38,30.17,30.07,12,1,12,0.00
2013-9-28,81.9,67.3,55.1,61.9,56.1,50.8,86,69,45,30.20,30.08,10,1,10,0.00
2013-9-29,72.1,64.6,59.2,59.2,57.2,55.0,87,77,61,30.10,30.02,13,3,13,0.00
2013-9-30,76.0,66.9,60.5,60.2,58.3,55.5,89,75,53,30.06,29.98,12,2,12,0.00
2013-10-1,79.8,68.6,58.0,63.8,59.7,54.5,89,74,55,30.12,30.03,12,2,12,0.00
2013-10-2,84.3,70.9,61.7,69.6,64.3,58.4,90,80,60,30.14,30.04,12,2,12,0.00
2013-10-3,82.6,72.0,68.0,69.3,66.0,64.2,90,82,57,30.11,30.03,9,2,9,0.09
2013-10-4,84.6,73.0,64.3,68.3,64.8,61.0,90,77,56,30.12,30.04,12,2,12,0.00
2013-10-5,85.0,72.4,67.3,69.5,65.9,63.5,90,81,58,30.08,29.94,16,3,16,0.66
2013-10-6,75.7,65.5,52.2,68.3,61.7,49.4,90,88,75,29.94,29.75,23,4,23,1.97
2013-10-7,64.3,54.1,46.1,50.5,45.8,43.0,90,75,49,30.18,29.86,18,3,18,0.06
2013-10-8,67.9,55.9,45.9,48.0,44.9,41.3,86,68,45,30.27,30.17,16,3,16,0.00
2013-10-9,75.1,60.7,48.5,54.0,47.4,42.6,81,63,43,30.24,30.16,7,1,7,0.00
2013-10-10,74.7,59.8,45.6,51.4,47.0,41.9,88,65,39,30.20,30.09,7,1,7,0.00
2013-10-11,78.7,61.9,48.1,56.4,50.3,44.1,88,68,45,30.12,30.03,8,1,8,0.00
2013-10-12,80.1,64.4,50.9,58.9,54.0,47.4,90,71,44,30.13,30.04,8,1,8,0.00
2013-10-13,77.5,64.4,53.8,63.4,57.1,50.9,90,78,57,30.27,30.13,12,2,12,0.00
2013-10-14,73.8,62.5,53.3,58.9,54.3,48.1,89,75,59,30.31,30.16,12,3,12,0.00
2013-10-15,73.1,65.8,59.7,61.5,59.3,56.1,90,80,66,30.18,29.96,15,3,15,0.00
2013-10-16,66.5,62.0,57.3,60.9,58.4,54.1,90,88,81,30.00,29.93,12,3,12,0.18
2013-10-17,57.3,52.9,47.0,54.4,48.3,43.2,90,85,73,30.04,29.90,14,2,14,0.21
2013-10-18,65.2,51.9,42.0,48.8,43.4,39.3,90,75,48,30.11,29.99,10,1,10,0.01
2013-10-19,51.4,47.1,40.7,47.9,42.6,37.3,89,84,78,30.08,29.88,12,2,12,0.18
2013-10-20,62.0,47.3,36.5,42.7,38.3,33.6,90,73,44,30.14,30.07,13,2,13,0.02
2013-10-21,68.1,52.8,39.2,45.1,40.0,35.1,86,64,37,30.10,29.96,15,3,15,0.00
2013-10-22,56.9,48.3,38.0,46.9,35.7,28.5,86,64,38,30.09,29.88,13,2,13,0.04
2013-10-23,47.0,42.6,37.7,42.1,35.8,30.8,86,77,67,30.11,29.78,17,5,17,0.03
2013-10-24,46.2,38.9,34.4,34.4,31.1,27.4,81,74,58,30.34,30.11,16,3,16,0.01
2013-10-25,48.7,36.9,27.5,29.4,26.5,23.3,85,68,44,30.52,30.34,8,2,8,0.00
2013-10-26,54.4,41.0,30.2,33.9,28.6,23.6,82,62,44,30.38,30.04,20,5,20,0.00
2013-10-27,62.1,47.2,35.4,40.7,36.4,31.5,88,68,43,30.15,30.07,13,1,13,0.00
2013-10-28,61.4,52.7,43.2,52.6,45.2,36.5,87,76,60,30.30,30.12,8,0,8,0.00
2013-10-29,60.8,52.8,43.2,54.7,49.0,40.3,90,87,78,30.36,30.21,6,0,6,0.04
2013-10-30,67.8,61.7,56.2,62.5,58.3,53.0,90,89,82,30.22,30.07,13,3,13,0.77
2013-10-31,68.9,64.6,62.0,61.7,57.2,53.5,87,77,66,30.07,29.48,35,11,35,0.63
2013-11-1,64.3,57.7,50.7,60.3,48.2,43.7,90,72,49,29.80,29.51,33,7,33,7.20
2013-11-2,56.4,48.6,42.4,43.8,39.9,34.7,85,72,53,30.14,29.79,14,3,14,0.00
2013-11-3,54.8,44.1,34.1,39.4,35.3,30.1,87,72,52,30.40,30.13,12,1,12,0.00
2013-11-4,45.7,41.7,40.5,35.0,33.4,32.3,76,72,68,30.43,30.36,9,2,9,0.00
2013-11-5,67.2,57.9,48.3,42.5,38.6,35.8,71,50,34,30.44,30.26,10,3,10,0.00
2013-11-6,69.2,58.6,49.7,58.2,48.7,36.4,90,70,56,30.26,30.02,24,6,24,0.42
2013-11-7,56.0,43.4,36.3,53.1,34.0,25.8,90,71,44,30.31,30.04,18,4,18,0.21
2013-11-8,53.1,40.5,29.7,30.7,27.9,24.9,83,62,39,30.44,30.30,8,2,8,0.00
2013-11-9,60.2,47.0,34.2,34.0,29.0,24.9,70,52,31,30.31,30.15,24,7,24,0.00
2013-11-10,54.3,46.1,36.8,37.1,30.6,25.6,79,56,34,30.39,30.20,14,3,14,0.00
2013-11-11,62.3,47.8,32.3,40.6,28.0,21.3,75,50,22,30.35,30.15,17,3,17,0.00
2013-11-12,48.8,31.9,22.3,41.1,22.5,15.4,90,69,47,30.68,30.19,23,9,23,0.10
2013-11-13,40.4,29.2,20.1,22.7,19.0,15.7,85,67,44,30.73,30.49,10,2,10,0.00
2013-11-14,54.9,39.7,27.2,24.2,20.1,18.0,69,48,26,30.49,30.25,21,4,21,0.00
2013-11-15,54.5,45.7,37.5,42.4,28.6,19.6,77,52,42,30.26,30.15,15,4,15,0.01
2013-11-25,41.6,32.6,22.4,29.1,18.4,9.4,87,58,39,30.57,30.24,3,1,16,0.00
2013-11-26,34.4,32.8,30.3,31.5,29.8,26.9,89,89,87,30.24,29.94,3,1,12,0.19
2013-11-27,30.5,25.4,17.4,26.7,19.6,11.9,86,78,70,30.39,29.98,3,2,17,0.00
2013-11-28,36.9,25.9,15.2,21.7,16.3,10.1,81,67,52,30.54,30.39,5,1,16,0.02
2013-11-29,45.7,33.2,21.0,27.0,21.5,14.6,77,63,46,30.68,30.51,1,0,7,0.05
2013-11-30,53.9,41.0,29.3,32.7,26.8,21.2,73,58,42,30.51,30.25,6,1,17,0.00
2013-12-1,49.2,45.6,38.6,34.9,32.4,25.9,67,60,53,30.25,30.01,27,4,27,0.00
2013-12-2,56.6,46.9,38.0,41.8,36.9,31.1,79,68,54,30.01,29.80,7,1,7,0.00
2013-12-3,57.1,50.2,42.9,48.2,44.6,39.3,90,81,72,29.90,29.81,9,2,9,0.00
2013-12-4,67.1,61.5,49.6,57.3,54.7,45.8,90,79,69,29.90,29.76,18,7,18,0.07
2013-12-5,65.2,52.5,34.4,60.8,48.2,31.2,90,85,79,30.14,29.84,17,7,17,1.13
2013-12-6,34.4,31.3,27.6,31.2,28.1,24.2,88,88,87,30.40,30.10,18,5,18,0.82
2013-12-7,27.6,25.5,22.2,24.2,21.3,17.8,90,84,79,30.61,30.40,0,0,0,0.00
2013-12-8,35.7,29.3,22.8,33.1,25.9,18.7,90,87,83,30.54,30.09,7,0,7,0.01
2013-12-9,35.3,31.0,26.3,32.7,27.0,21.1,90,85,77,30.29,30.09,14,4,14,0.07
2013-12-10,31.9,25.8,22.2,22.2,19.1,16.6,84,76,62,30.44,30.18,16,5,16,0.00
2013-12-11,39.7,28.0,18.7,25.1,19.9,14.9,86,72,50,30.56,30.39,17,5,17,0.04
2013-12-12,30.2,21.0,11.3,17.4,9.4,5.1,79,62,41,30.64,30.44,10,3,10,0.00
2013-12-13,44.2,31.9,21.1,29.4,17.1,10.7,75,55,35,30.45,30.17,12,3,12,0.03
2013-12-14,44.7,39.0,33.5,41.8,33.8,24.9,90,82,48,30.18,29.75,20,5,20,0.46
2013-12-15,33.5,29.4,27.1,30.3,24.4,21.3,88,82,77,30.21,29.93,16,7,16,0.12
2013-12-16,43.2,35.0,28.8,33.3,28.8,24.0,84,78,67,30.20,30.08,15,4,15,0.00
2013-12-17,42.2,36.2,28.9,34.5,30.2,23.4,84,79,73,30.27,30.05,14,5,14,0.00
2013-12-18,41.7,31.9,24.1,23.4,19.8,15.6,85,64,36,30.38,30.17,14,4,14,0.00
2013-12-19,59.0,47.2,33.3,38.3,28.0,19.5,57,47,41,30.22,30.06,26,7,26,0.00
2013-12-20,60.3,54.4,49.5,54.3,43.2,29.5,87,68,44,30.06,29.91,17,8,17,0.12
2013-12-21,70.0,62.6,56.8,62.1,57.3,50.4,90,83,71,29.91,29.57,39,11,39,0.93
2013-12-22,59.0,55.1,41.8,56.1,49.6,38.4,90,82,68,30.07,29.62,23,8,23,0.50
2013-12-23,41.7,33.0,25.7,38.4,26.2,18.8,89,76,62,30.44,30.07,14,5,14,0.02
2013-12-24,25.6,21.2,16.7,18.9,12.6,7.9,81,69,55,30.61,30.43,13,4,13,0.00
2013-12-25,39.6,27.9,16.6,21.5,14.9,9.2,75,59,40,30.56,30.30,14,4,14,0.00
2013-12-26,42.0,34.9,29.5,25.3,23.0,20.6,73,62,47,30.45,30.28,16,4,16,0.00
2013-12-27,50.3,36.4,26.0,25.8,22.0,19.1,76,57,34,30.50,30.39,12,2,12,0.00
2013-12-28,48.5,40.2,30.6,33.0,25.6,20.0,77,56,43,30.41,30.08,10,2,10,0.05
2013-12-29,44.4,39.2,31.4,38.5,35.2,27.7,90,86,77,30.09,29.89,15,4,15,0.61
2013-12-30,31.3,28.3,23.7,27.6,22.7,17.4,86,80,71,30.30,30.09,10,3,10,0.00
2013-12-31,36.7,27.7,21.3,21.1,18.3,15.3,78,68,51,30.49,30.27,17,5,17,0.01
2014-1-1,47.4,37.0,29.2,27.9,23.9,20.5,75,60,40,30.37,30.05,13,4,13,0.00
2014-1-2,38.6,28.4,12.7,33.5,22.4,7.0,88,79,56,30.32,29.84,23,6,23,0.20